Time;durP1;ratioP1;P1;durP2;ratioP2;P2;SDS_P1;SDS_P2;PMS_P1;PMS_P2;Temp;Humidity;BMP_temperature;BMP_pressure;BME280_temperature;BME280_humidity;BME280_pressure;Samples;Min_cycle;Max_cycle;Signal;HPM_P1;HPM_P2
2023/01/29 00:01:55;;;;;;;31.40;16.35;;;;;;;-1.04;82.31;100965.77;1476885;88;22559;-83
2023/01/29 00:04:21;;;;;;;42.93;19.75;;;;;;;-1.05;82.58;100971.88;1480999;88;21797;-84
2023/01/29 00:06:47;;;;;;;37.63;18.73;;;;;;;-1.04;82.43;100968.83;1475145;88;21554;-85
2023/01/29 00:09:14;;;;;;;44.47;21.90;;;;;;;-1.05;82.51;100975.78;1472938;88;22124;-83
2023/01/29 00:11:41;;;;;;;42.37;19.77;;;;;;;-1.00;82.41;100976.91;1470965;87;21516;-83
2023/01/29 00:14:07;;;;;;;41.83;19.57;;;;;;;-1.05;82.63;100974.48;1480221;88;21480;-85
2023/01/29 00:16:33;;;;;;;41.77;18.63;;;;;;;-1.03;82.75;100983.07;1476959;88;21806;-84
2023/01/29 00:19:03;;;;;;;40.13;19.17;;;;;;;-1.01;82.88;100974.73;1481587;88;22052;-83
2023/01/29 00:21:30;;;;;;;35.30;16.70;;;;;;;-1.04;82.79;100976.16;1484312;88;22224;-84
2023/01/29 00:23:58;;;;;;;42.43;20.75;;;;;;;-0.95;82.77;100980.16;1479576;87;22149;-85
2023/01/29 00:26:25;;;;;;;43.40;18.30;;;;;;;-0.99;83.00;100975.53;1490287;88;21405;-86
2023/01/29 00:28:52;;;;;;;47.25;19.48;;;;;;;-1.00;82.88;100984.25;1444605;88;21645;-86
2023/01/29 00:31:25;;;;;;;44.77;19.30;;;;;;;-0.94;82.71;100984.46;1482993;88;22360;-85
2023/01/29 00:33:51;;;;;;;36.23;16.90;;;;;;;-0.94;82.53;100979.27;1491422;87;22243;-85
2023/01/29 00:36:20;;;;;;;32.70;15.28;;;;;;;-0.96;82.55;100981.91;1487187;88;21609;-87
2023/01/29 00:38:53;;;;;;;48.43;22.07;;;;;;;-0.97;82.68;100987.18;1485567;88;21938;-86
2023/01/29 00:46:45;;;;;;;34.17;16.57;;;;;;;-0.99;82.95;100991.12;1463779;88;22067;-84
2023/01/29 00:49:12;;;;;;;39.23;19.48;;;;;;;-0.97;82.94;100989.32;1479761;88;23234;-87
2023/01/29 00:51:39;;;;;;;34.48;17.45;;;;;;;-0.97;82.95;100993.22;1485351;88;21361;-86
2023/01/29 00:54:06;;;;;;;42.30;19.73;;;;;;;-0.96;82.94;100998.80;1484285;88;21375;-86
2023/01/29 00:56:35;;;;;;;40.00;19.83;;;;;;;-0.92;82.84;100999.55;1481273;88;22517;-86
2023/01/29 00:59:02;;;;;;;42.90;18.13;;;;;;;-0.91;82.88;101000.77;1485614;87;22997;-84
2023/01/29 01:04:13;;;;;;;39.60;18.48;;;;;;;-0.83;82.53;100993.14;1483397;88;22499;-86
2023/01/29 01:06:41;;;;;;;37.65;18.00;;;;;;;-0.82;82.29;100996.95;1485781;88;21377;-82
2023/01/29 01:11:55;;;;;;;33.03;14.00;;;;;;;-0.79;81.92;101004.63;1481779;88;22320;-80
2023/01/29 01:14:22;;;;;;;32.50;16.23;;;;;;;-0.76;81.34;101001.07;1487285;88;21574;-81
2023/01/29 01:16:48;;;;;;;32.47;16.53;;;;;;;-0.65;81.67;101001.95;1478856;88;21794;-83
2023/01/29 01:19:15;;;;;;;29.93;15.30;;;;;;;-0.68;81.48;101002.91;1481599;88;22024;-84
2023/01/29 01:21:47;;;;;;;36.23;17.47;;;;;;;-0.67;81.23;101008.49;1485473;88;21599;-85
2023/01/29 01:24:14;;;;;;;47.90;19.23;;;;;;;-0.62;81.35;101008.32;1478766;88;21585;-85
2023/01/29 01:26:40;;;;;;;29.13;15.53;;;;;;;-0.62;81.38;101007.86;1492599;88;21613;-83
2023/01/29 01:29:07;;;;;;;38.10;17.73;;;;;;;-0.60;80.81;101003.45;1485370;88;21732;-84
2023/01/29 01:31:33;;;;;;;28.87;13.93;;;;;;;-0.56;80.85;101008.06;1478038;88;21544;-83
2023/01/29 01:33:59;;;;;;;31.77;16.93;;;;;;;-0.57;80.48;101008.98;1484245;88;21545;-85
2023/01/29 01:36:25;;;;;;;30.70;16.07;;;;;;;-0.55;80.91;101007.98;1481330;88;22554;-84
2023/01/29 01:38:53;;;;;;;33.50;17.23;;;;;;;-0.55;80.53;101013.19;1465651;88;21583;-86
2023/01/29 01:41:22;;;;;;;34.73;16.40;;;;;;;-0.50;80.64;101012.55;1486954;88;21850;-85
2023/01/29 01:43:56;;;;;;;33.30;16.73;;;;;;;-0.48;80.57;101015.95;1479485;88;21619;-83
2023/01/29 01:46:25;;;;;;;31.20;16.47;;;;;;;-0.42;80.39;101014.02;1483218;87;22191;-85
2023/01/29 01:48:59;;;;;;;30.97;15.77;;;;;;;-0.41;80.26;101014.39;1482671;88;21719;-86
2023/01/29 01:51:27;;;;;;;34.47;16.60;;;;;;;-0.35;80.25;101020.64;1484892;88;21608;-85
2023/01/29 01:54:08;;;;;;;33.43;15.67;;;;;;;-0.35;80.21;101016.73;1478245;88;21989;-85
2023/01/29 01:56:39;;;;;;;33.33;16.02;;;;;;;-0.37;79.97;101014.21;1477608;88;21708;-85
2023/01/29 01:59:11;;;;;;;28.93;14.53;;;;;;;-0.36;80.22;101025.00;1483407;88;21567;-85
2023/01/29 02:01:41;;;;;;;33.13;15.87;;;;;;;-0.41;79.79;101019.59;1482991;88;21865;-85
2023/01/29 02:09:54;;;;;;;31.63;15.53;;;;;;;-0.34;79.94;101037.95;1483941;88;21510;-82
2023/01/29 02:12:21;;;;;;;38.50;16.87;;;;;;;-0.34;79.67;101031.45;1489149;88;22021;-83
2023/01/29 02:14:48;;;;;;;31.13;15.20;;;;;;;-0.35;79.46;101040.14;1483531;88;21565;-83
2023/01/29 02:17:17;;;;;;;30.67;16.17;;;;;;;-0.30;79.85;101038.20;1478590;88;21924;-82
2023/01/29 02:20:03;;;;;;;31.80;16.23;;;;;;;-0.35;79.45;101044.88;1484475;88;21602;-83
2023/01/29 02:23:04;;;;;;;34.50;13.57;;;;;;;-0.30;79.58;101047.31;1488298;88;21802;-82
2023/01/29 02:25:39;;;;;;;25.93;14.13;;;;;;;-0.33;79.06;101047.44;1486265;88;21651;-81
2023/01/29 02:28:36;;;;;;;35.37;17.07;;;;;;;-0.28;79.13;101047.64;1486361;88;21726;-83
2023/01/29 02:31:34;;;;;;;35.10;16.50;;;;;;;-0.31;79.56;101040.42;1491769;88;22322;-83
2023/01/29 02:37:26;;;;;;;32.63;15.10;;;;;;;-0.30;79.00;101046.85;1486198;88;21875;-82
2023/01/29 02:40:06;;;;;;;33.00;15.63;;;;;;;-0.23;79.20;101048.77;1491819;88;21543;-82
2023/01/29 02:42:56;;;;;;;37.00;14.80;;;;;;;-0.25;79.32;101046.67;1486811;88;21628;-81
2023/01/29 02:45:33;;;;;;;34.20;18.30;;;;;;;-0.29;79.11;101051.59;1478717;88;22588;-81
2023/01/29 02:48:01;;;;;;;31.17;12.97;;;;;;;-0.24;79.15;101037.95;1497168;88;21665;-82
2023/01/29 02:50:44;;;;;;;31.53;15.07;;;;;;;-0.24;79.39;101053.55;1486570;87;21747;-80
2023/01/29 02:53:27;;;;;;;33.37;14.93;;;;;;;-0.21;79.13;101058.63;1478026;88;21546;-82
2023/01/29 02:56:11;;;;;;;29.13;13.33;;;;;;;-0.25;78.93;101057.08;1461436;88;21797;-81
2023/01/29 02:58:49;;;;;;;31.77;16.70;;;;;;;-0.22;79.22;101054.35;1490069;88;21786;-82
2023/01/29 03:01:29;;;;;;;28.90;16.03;;;;;;;-0.22;79.24;101056.95;1474571;88;21684;-81
2023/01/29 03:04:00;;;;;;;26.25;13.48;;;;;;;-0.29;78.83;101061.57;1480960;88;22537;-82
2023/01/29 03:06:36;;;;;;;;;;;;;;;-0.25;79.00;101058.38;1466375;88;21641;-81
2023/01/29 03:09:06;;;;;;;26.87;13.73;;;;;;;-0.28;78.96;101062.41;1488878;88;20386;-81
2023/01/29 03:11:38;;;;;;;18.85;10.03;;;;;;;-0.26;78.80;101063.17;1491748;88;21815;-81
2023/01/29 03:14:22;;;;;;;25.07;11.43;;;;;;;-0.27;78.83;101064.09;1462840;88;21596;-81
2023/01/29 03:16:51;;;;;;;22.57;12.10;;;;;;;-0.25;78.93;101070.09;1477386;88;21729;-82
2023/01/29 03:19:34;;;;;;;23.60;11.37;;;;;;;-0.23;78.80;101074.78;1482170;88;21807;-82
2023/01/29 03:22:03;;;;;;;25.30;12.90;;;;;;;-0.25;78.56;101076.59;1488290;88;21545;-82
2023/01/29 03:33:09;;;;;;;25.70;12.60;;;;;;;-0.24;78.59;101083.02;1488654;87;22263;-86
2023/01/29 03:35:40;;;;;;;27.00;13.47;;;;;;;-0.19;78.67;101089.34;1486604;88;22832;-85
2023/01/29 03:38:10;;;;;;;21.87;11.50;;;;;;;-0.23;78.55;101083.89;1476393;88;21577;-87
2023/01/29 03:40:47;;;;;;;25.37;12.60;;;;;;;-0.23;78.84;101078.69;1480223;87;21352;-87
2023/01/29 03:43:46;;;;;;;23.77;11.17;;;;;;;-0.20;78.55;101083.77;1484009;88;23178;-87
2023/01/29 03:46:28;;;;;;;25.60;13.80;;;;;;;-0.21;78.04;101086.41;1477803;88;22580;-87
2023/01/29 03:49:29;;;;;;;25.17;12.40;;;;;;;-0.19;78.40;101084.14;1482562;88;21666;-86
2023/01/29 03:52:31;;;;;;;25.92;11.33;;;;;;;-0.16;78.32;101087.08;1483937;88;21369;-87
2023/01/29 03:55:12;;;;;;;;;;;;;;;-0.19;77.92;101091.95;1478875;88;22455;-84
2023/01/29 03:57:50;;;;;;;25.00;12.20;;;;;;;-0.16;78.30;101090.52;1461651;88;20357;-83
2023/01/29 04:00:33;;;;;;;25.37;12.17;;;;;;;-0.21;78.06;101083.81;1464105;88;22433;-86
2023/01/29 04:03:22;;;;;;;23.57;12.77;;;;;;;-0.21;78.13;101087.25;1480538;88;21868;-84
2023/01/29 04:06:08;;;;;;;24.63;12.90;;;;;;;-0.19;78.34;101090.64;1480524;88;21612;-84
2023/01/29 04:08:49;;;;;;;21.40;10.93;;;;;;;-0.20;78.36;101088.97;1488109;88;21621;-85
2023/01/29 04:11:19;;;;;;;19.70;11.33;;;;;;;-0.18;78.06;101092.33;1486784;88;21704;-83
2023/01/29 04:13:46;;;;;;;22.40;12.23;;;;;;;-0.18;77.85;101087.13;1482943;87;21376;-85
2023/01/29 04:16:21;;;;;;;22.47;12.70;;;;;;;-0.13;77.88;101087.79;1490685;88;22530;-87
2023/01/29 04:18:48;;;;;;;23.07;11.53;;;;;;;-0.14;77.56;101086.11;1470175;88;21636;-86
2023/01/29 04:21:15;;;;;;;26.43;11.77;;;;;;;-0.19;77.22;101082.00;1460330;88;21867;-86
2023/01/29 04:23:42;;;;;;;21.77;11.93;;;;;;;-0.22;77.41;101090.77;1488934;87;21728;-87
2023/01/29 04:26:34;;;;;;;24.03;11.83;;;;;;;-0.24;77.33;101088.22;1474691;88;22365;-85
2023/01/29 04:29:33;;;;;;;21.23;11.23;;;;;;;-0.16;77.39;101089.22;1484927;88;21726;-83
2023/01/29 04:32:19;;;;;;;21.50;11.40;;;;;;;-0.19;77.02;101082.84;1485507;88;21687;-84
2023/01/29 04:35:18;;;;;;;20.87;11.70;;;;;;;-0.22;76.87;101085.57;1487440;88;22658;-82
2023/01/29 04:37:56;;;;;;;21.10;10.90;;;;;;;-0.13;77.07;101081.28;1481665;88;21824;-83
2023/01/29 04:40:52;;;;;;;21.17;9.60;;;;;;;-0.13;76.79;101089.55;1437560;88;21530;-86
2023/01/29 04:43:35;;;;;;;19.00;10.43;;;;;;;-0.15;76.64;101087.45;1470308;88;21895;-86
2023/01/29 04:46:18;;;;;;;17.10;9.50;;;;;;;-0.11;76.85;101079.94;1482169;88;21692;-84
2023/01/29 04:48:56;;;;;;;16.33;9.47;;;;;;;-0.13;76.59;101080.44;1484619;87;21692;-84
2023/01/29 04:51:26;;;;;;;16.53;9.30;;;;;;;-0.14;76.04;101077.46;1489870;87;21538;-87
2023/01/29 04:54:04;;;;;;;17.65;9.95;;;;;;;-0.14;76.33;101074.40;1481118;88;21617;-87
2023/01/29 04:56:38;;;;;;;18.93;8.00;;;;;;;-0.12;76.38;101076.46;1481375;88;22617;-86
2023/01/29 04:59:09;;;;;;;16.70;8.00;;;;;;;-0.21;76.01;101076.84;1485130;88;22458;-87
2023/01/29 05:01:37;;;;;;;14.03;8.00;;;;;;;-0.20;76.20;101074.66;1487444;88;21553;-86
2023/01/29 05:04:08;;;;;;;12.60;6.37;;;;;;;-0.18;76.27;101075.88;1486711;88;22609;-87
2023/01/29 05:06:37;;;;;;;16.20;8.57;;;;;;;-0.13;76.63;101079.14;1482155;88;21494;-85
2023/01/29 05:09:03;;;;;;;20.63;8.40;;;;;;;-0.16;76.33;101077.51;1488036;88;21642;-85
2023/01/29 05:11:32;;;;;;;15.53;8.33;;;;;;;-0.19;76.22;101076.34;1482248;88;22459;-85
2023/01/29 05:14:01;;;;;;;17.10;9.37;;;;;;;-0.18;76.48;101074.11;1479334;88;22690;-86
2023/01/29 05:16:40;;;;;;;16.77;8.87;;;;;;;-0.18;76.62;101078.02;1491399;88;22337;-85
2023/01/29 05:19:03;;;;;;;15.67;8.23;;;;;;;-0.19;76.43;101080.23;1467837;88;21662;-87
2023/01/29 05:21:31;;;;;;;15.63;8.33;;;;;;;-0.13;76.78;101085.19;1486158;88;21661;-84
2023/01/29 05:24:11;;;;;;;16.27;7.77;;;;;;;-0.17;76.45;101077.55;1488138;88;21435;-84
2023/01/29 05:29:23;;;;;;;15.57;7.73;;;;;;;-0.18;76.55;101077.17;1485522;87;21772;-86
2023/01/29 05:31:49;;;;;;;14.20;6.80;;;;;;;-0.21;76.50;101076.84;1487587;88;21429;-85
2023/01/29 05:34:17;;;;;;;16.83;7.80;;;;;;;-0.21;76.60;101084.65;1483090;88;21766;-80
2023/01/29 05:36:43;;;;;;;14.53;7.50;;;;;;;-0.18;76.79;101080.62;1482486;88;21611;-81
2023/01/29 05:39:09;;;;;;;16.37;8.57;;;;;;;-0.24;76.31;101083.47;1474904;88;21717;-82
2023/01/29 05:41:36;;;;;;;14.33;7.20;;;;;;;-0.20;76.29;101086.36;1485221;88;21581;-81
2023/01/29 05:44:02;;;;;;;19.13;9.77;;;;;;;-0.23;76.14;101083.89;1483180;88;22605;-82
2023/01/29 05:46:28;;;;;;;16.00;8.50;;;;;;;-0.19;76.51;101089.80;1484949;88;21568;-86
2023/01/29 05:48:54;;;;;;;17.33;8.27;;;;;;;-0.18;76.60;101090.19;1476862;87;21686;-83
2023/01/29 05:51:20;;;;;;;15.83;7.77;;;;;;;-0.16;76.68;101098.33;1477780;88;21705;-82
2023/01/29 05:53:47;;;;;;;13.20;7.90;;;;;;;-0.11;76.59;101097.69;1490247;88;21593;-82
2023/01/29 05:56:13;;;;;;;14.43;7.53;;;;;;;-0.14;76.24;101100.88;1479061;88;21607;-82
2023/01/29 05:58:39;;;;;;;15.97;8.27;;;;;;;-0.10;76.33;101102.43;1482674;88;21648;-81
2023/01/29 06:01:13;;;;;;;14.00;8.07;;;;;;;-0.10;76.45;101100.67;1476534;88;21569;-83
2023/01/29 06:03:39;;;;;;;16.03;7.03;;;;;;;-0.13;76.05;101106.46;1489647;88;21761;-83
2023/01/29 06:06:07;;;;;;;16.93;8.73;;;;;;;-0.16;75.90;101111.33;1481973;88;21752;-80
2023/01/29 06:08:33;;;;;;;13.73;7.27;;;;;;;-0.18;75.44;101105.33;1485076;88;22633;-82
2023/01/29 06:10:59;;;;;;;13.07;6.30;;;;;;;-0.19;75.03;101118.42;1476706;87;22150;-87
2023/01/29 06:13:26;;;;;;;16.87;8.67;;;;;;;-0.14;75.39;101117.33;1478614;88;21577;-86
2023/01/29 06:15:52;;;;;;;14.77;7.83;;;;;;;-0.12;75.53;101116.79;1478521;88;21382;-84
2023/01/29 06:18:18;;;;;;;15.57;8.10;;;;;;;-0.12;75.02;101115.95;1487294;88;21726;-86
2023/01/29 06:20:45;;;;;;;13.67;7.40;;;;;;;-0.11;75.13;101121.11;1489243;87;21568;-87
2023/01/29 06:23:11;;;;;;;17.77;8.63;;;;;;;-0.09;75.03;101119.27;1484621;88;21655;-84
2023/01/29 06:25:37;;;;;;;12.37;6.57;;;;;;;-0.09;74.64;101130.97;1489937;88;22448;-87
2023/01/29 06:28:04;;;;;;;14.00;6.10;;;;;;;-0.12;74.12;101131.10;1479003;88;21539;-84
2023/01/29 06:30:30;;;;;;;13.23;7.63;;;;;;;-0.05;74.17;101139.07;1479918;88;22707;-84
2023/01/29 06:32:58;;;;;;;12.83;6.10;;;;;;;-0.03;74.33;101132.48;1481540;88;21675;-83
2023/01/29 06:35:25;;;;;;;9.17;5.70;;;;;;;-0.05;73.63;101135.16;1480068;88;21501;-87
2023/01/29 06:37:51;;;;;;;13.47;6.50;;;;;;;-0.03;73.79;101137.69;1485458;88;21720;-88
2023/01/29 06:40:18;;;;;;;11.53;6.77;;;;;;;0.02;73.84;101140.11;1478630;88;22462;-86
2023/01/29 06:42:44;;;;;;;10.60;6.30;;;;;;;0.04;73.85;101143.52;1483727;88;21567;-86
2023/01/29 06:45:10;;;;;;;12.37;6.03;;;;;;;0.03;74.00;101147.00;1491837;88;23009;-88
2023/01/29 06:47:37;;;;;;;9.00;5.43;;;;;;;0.03;74.18;101147.00;1459487;88;21620;-86
2023/01/29 06:50:03;;;;;;;12.13;7.30;;;;;;;0.06;74.42;101150.34;1489344;88;21723;-87
2023/01/29 06:52:29;;;;;;;10.17;5.50;;;;;;;0.10;74.62;101151.91;1478932;88;21627;-87
2023/01/29 06:54:56;;;;;;;9.67;5.43;;;;;;;0.07;73.79;101149.89;1480989;88;21679;-86
2023/01/29 06:57:22;;;;;;;11.33;6.00;;;;;;;0.04;73.28;101152.62;1479141;88;21507;-87
2023/01/29 06:59:48;;;;;;;10.40;5.73;;;;;;;0.01;73.20;101156.66;1481220;88;21384;-86
2023/01/29 07:02:15;;;;;;;8.07;3.97;;;;;;;-0.04;73.06;101161.57;1488477;88;21755;-85
2023/01/29 07:04:41;;;;;;;12.63;6.37;;;;;;;-0.04;73.22;101157.67;1482545;88;21480;-87
2023/01/29 07:07:15;;;;;;;8.60;4.57;;;;;;;-0.01;73.40;101151.49;1479742;87;22450;-85
2023/01/29 07:09:41;;;;;;;10.93;6.83;;;;;;;-0.04;73.08;101152.92;1474393;88;22698;-87
2023/01/29 07:12:09;;;;;;;8.10;4.90;;;;;;;0.04;73.43;101148.72;1486571;88;21689;-84
2023/01/29 07:14:35;;;;;;;10.67;5.47;;;;;;;-0.01;72.69;101145.83;1484381;87;21822;-86
2023/01/29 07:17:01;;;;;;;11.33;6.30;;;;;;;-0.02;73.01;101146.75;1483973;88;21569;-86
2023/01/29 07:19:28;;;;;;;10.07;5.83;;;;;;;-0.03;73.09;101150.27;1477592;88;21764;-86
2023/01/29 07:21:55;;;;;;;8.90;4.20;;;;;;;0.03;73.25;101147.88;1480251;88;23138;-86
2023/01/29 07:24:22;;;;;;;10.97;6.27;;;;;;;-0.05;72.74;101152.08;1474170;88;21719;-83
2023/01/29 07:26:48;;;;;;;13.37;7.93;;;;;;;0.02;73.18;101148.77;1485124;88;22295;-87
2023/01/29 07:29:14;;;;;;;13.30;7.33;;;;;;;-0.04;73.34;101151.62;1483947;88;21782;-84
2023/01/29 07:31:40;;;;;;;17.53;10.37;;;;;;;-0.02;73.52;101154.55;1485206;88;21562;-81
2023/01/29 07:34:06;;;;;;;14.57;8.20;;;;;;;0.01;73.61;101150.14;1489251;88;21646;-81
2023/01/29 07:36:32;;;;;;;10.17;5.73;;;;;;;0.01;73.50;101154.89;1484927;88;21659;-82
2023/01/29 07:38:58;;;;;;;10.83;5.90;;;;;;;-0.07;73.07;101156.48;1488157;88;21485;-83
2023/01/29 07:41:24;;;;;;;12.97;7.00;;;;;;;-0.06;73.14;101157.33;1487019;87;21637;-83
2023/01/29 07:43:51;;;;;;;10.07;6.37;;;;;;;-0.02;73.38;101149.34;1485796;88;21539;-83
2023/01/29 07:46:17;;;;;;;21.73;10.70;;;;;;;-0.01;73.17;101160.14;1490848;88;21672;-83
2023/01/29 07:48:43;;;;;;;67.17;31.70;;;;;;;-0.03;72.81;101163.28;1479514;88;21678;-87
2023/01/29 07:51:10;;;;;;;25.87;12.33;;;;;;;0.04;73.03;101156.53;1488828;88;21541;-85
2023/01/29 07:53:36;;;;;;;159.60;69.73;;;;;;;0.05;72.88;101156.91;1486240;88;21733;-83
2023/01/29 07:56:02;;;;;;;73.83;31.30;;;;;;;0.11;73.41;101155.34;1489202;88;22666;-85
2023/01/29 07:58:29;;;;;;;62.43;27.03;;;;;;;0.05;72.87;101153.00;1475366;88;21546;-82
2023/01/29 08:00:55;;;;;;;15.60;7.83;;;;;;;0.11;73.24;101152.74;1480805;88;22805;-85
2023/01/29 08:03:21;;;;;;;13.17;7.00;;;;;;;0.06;72.71;101155.55;1488911;88;21436;-87
2023/01/29 08:05:47;;;;;;;16.93;8.10;;;;;;;0.08;73.15;101148.97;1479291;88;21720;-86
2023/01/29 08:08:14;;;;;;;18.67;9.00;;;;;;;0.09;72.92;101150.22;1483691;88;21606;-85
2023/01/29 08:10:41;;;;;;;13.53;7.23;;;;;;;0.16;72.98;101152.11;1477442;87;21616;-82
2023/01/29 08:13:08;;;;;;;9.53;4.83;;;;;;;0.11;72.15;101151.45;1487841;88;21525;-82
2023/01/29 08:15:34;;;;;;;14.63;7.43;;;;;;;0.10;72.44;101144.55;1480144;88;22658;-84
2023/01/29 08:18:02;;;;;;;12.37;6.93;;;;;;;0.08;72.73;101139.40;1480464;88;21648;-86
2023/01/29 08:20:29;;;;;;;18.10;10.97;;;;;;;0.08;72.86;101147.67;1475092;88;21539;-84
2023/01/29 08:23:07;;;;;;;10.30;6.23;;;;;;;0.11;73.16;101155.34;1478201;88;21704;-80
2023/01/29 08:25:35;;;;;;;12.83;5.83;;;;;;;0.14;73.18;101152.62;1478085;88;21665;-81
2023/01/29 08:28:01;;;;;;;14.73;7.60;;;;;;;0.16;73.09;101156.02;1474596;88;21658;-82
2023/01/29 08:30:31;;;;;;;14.00;7.93;;;;;;;0.18;73.38;101156.81;1471145;88;21897;-90
2023/01/29 08:32:57;;;;;;;15.03;8.20;;;;;;;0.19;73.11;101163.23;1475317;88;21353;-90
2023/01/29 08:35:25;;;;;;;18.20;9.07;;;;;;;0.20;73.40;101166.67;1476820;88;21688;-88
2023/01/29 08:38:00;;;;;;;23.23;12.17;;;;;;;0.15;73.36;101169.49;1475889;88;21621;-89
2023/01/29 08:40:30;;;;;;;20.00;9.60;;;;;;;0.20;73.42;101170.58;1475211;88;22075;-87
2023/01/29 08:43:05;;;;;;;14.73;7.17;;;;;;;0.20;73.77;101179.70;1400366;88;21504;-89
2023/01/29 08:45:38;;;;;;;13.57;7.43;;;;;;;0.14;73.04;101182.55;1503061;88;21598;-90
2023/01/29 08:48:05;;;;;;;10.03;5.83;;;;;;;0.11;73.38;101182.69;1402814;88;21711;-88
2023/01/29 08:50:33;;;;;;;14.50;7.73;;;;;;;0.08;73.03;101183.65;1454395;88;22462;-87
2023/01/29 08:53:09;;;;;;;14.07;6.87;;;;;;;0.12;73.73;101194.81;1472582;88;21762;-86
2023/01/29 08:55:45;;;;;;;15.03;7.87;;;;;;;0.03;73.78;101197.33;1559326;88;21590;-86
2023/01/29 08:58:11;;;;;;;11.43;6.33;;;;;;;0.07;73.09;101200.64;1395182;88;21516;-87
2023/01/29 09:00:38;;;;;;;16.70;9.50;;;;;;;0.03;72.71;101199.93;1398602;88;21740;-87
2023/01/29 09:03:06;;;;;;;23.30;12.03;;;;;;;0.08;73.08;101199.27;1383782;89;21489;-89
2023/01/29 09:05:35;;;;;;;29.90;14.97;;;;;;;0.11;73.63;101193.94;1396454;88;21650;-90
2023/01/29 09:08:01;;;;;;;21.20;11.50;;;;;;;0.11;74.15;101190.03;1395872;88;21324;-84
2023/01/29 09:10:27;;;;;;;13.33;7.30;;;;;;;0.09;75.21;101202.28;1398519;88;21436;-83
2023/01/29 09:12:53;;;;;;;28.60;16.73;;;;;;;0.11;75.60;101200.44;1398729;88;21544;-84
2023/01/29 09:15:19;;;;;;;29.03;17.37;;;;;;;0.12;75.69;101203.45;1398996;88;22354;-83
2023/01/29 09:17:48;;;;;;;18.23;10.40;;;;;;;0.08;76.03;101199.73;1404558;88;21505;-85
2023/01/29 09:20:14;;;;;;;17.57;8.67;;;;;;;0.14;76.04;101202.08;1562119;88;22419;-85
2023/01/29 09:22:41;;;;;;;25.97;11.03;;;;;;;0.08;76.05;101199.27;1406553;88;22509;-85
2023/01/29 09:25:08;;;;;;;13.57;7.87;;;;;;;0.16;76.08;101213.28;1406857;87;21405;-85
2023/01/29 09:27:34;;;;;;;13.87;7.83;;;;;;;0.17;75.97;101213.66;1412245;88;21330;-84
2023/01/29 09:30:01;;;;;;;12.00;7.20;;;;;;;0.21;75.89;101218.70;1406934;88;21307;-84
2023/01/29 09:32:29;;;;;;;13.93;6.70;;;;;;;0.23;75.50;101219.92;1407094;88;21474;-84
2023/01/29 09:34:56;;;;;;;13.77;7.77;;;;;;;0.13;75.56;101214.71;1411484;88;21540;-84
2023/01/29 09:37:22;;;;;;;12.47;6.57;;;;;;;0.10;75.25;101205.73;1569736;88;22347;-84
2023/01/29 09:39:49;;;;;;;12.00;6.50;;;;;;;0.10;74.85;101212.23;1406729;88;21654;-85
2023/01/29 09:42:30;;;;;;;11.10;6.87;;;;;;;0.10;74.86;101219.58;1406415;88;22308;-85
2023/01/29 09:45:16;;;;;;;11.43;6.80;;;;;;;0.03;75.05;101218.15;1519991;89;21384;-84
2023/01/29 09:47:43;;;;;;;13.83;7.03;;;;;;;0.07;75.25;101217.56;1402245;89;21362;-85
2023/01/29 09:50:44;;;;;;;8.90;5.50;;;;;;;0.12;74.81;101218.23;1483623;89;21577;-86
2023/01/29 09:53:18;;;;;;;15.77;9.00;;;;;;;0.10;74.36;101213.53;1412189;92;22418;-85
2023/01/29 09:55:52;;;;;;;8.87;5.53;;;;;;;0.07;73.77;101214.96;1542905;89;21524;-86
2023/01/29 09:58:26;;;;;;;11.73;7.97;;;;;;;0.12;74.22;101220.84;1391198;89;21359;-86
2023/01/29 10:01:03;;;;;;;16.30;8.93;;;;;;;0.11;73.62;101225.62;1381607;91;21563;-84
2023/01/29 10:03:52;;;;;;;17.73;8.23;;;;;;;0.11;73.63;101213.92;1416090;89;21641;-85
2023/01/29 10:06:24;;;;;;;23.13;12.60;;;;;;;0.09;73.82;101214.45;1393199;89;22247;-85
2023/01/29 10:08:56;;;;;;;12.03;6.90;;;;;;;0.16;73.30;101215.89;1515175;91;21628;-85
2023/01/29 10:11:59;;;;;;;11.60;7.27;;;;;;;0.16;72.91;101213.28;1514288;91;21783;-85
2023/01/29 10:15:08;;;;;;;13.40;8.57;;;;;;;0.21;73.14;101216.56;1359171;91;21503;-85
2023/01/29 10:17:51;;;;;;;14.30;8.80;;;;;;;0.21;73.57;101216.09;1507853;91;21568;-85
2023/01/29 10:21:06;;;;;;;13.50;7.10;;;;;;;0.20;72.75;101217.02;1385456;91;21601;-88
2023/01/29 10:23:37;;;;;;;15.80;7.10;;;;;;;0.30;75.34;101222.69;1538344;89;21525;-91
2023/01/29 10:26:03;;;;;;;12.07;7.35;;;;;;;0.59;76.43;101220.17;1462124;89;21341;-89
2023/01/29 10:28:38;;;;;;;11.00;6.10;;;;;;;0.83;74.84;101219.58;1381863;89;21208;-86
2023/01/29 10:31:26;;;;;;;11.63;7.33;;;;;;;0.72;71.61;101221.83;1566720;88;21447;-88
2023/01/29 10:34:04;;;;;;;11.83;6.40;;;;;;;0.79;72.82;101218.03;1493962;88;21612;-86
2023/01/29 10:36:46;;;;;;;11.67;5.60;;;;;;;0.58;70.72;101209.84;1484235;88;21637;-87
2023/01/29 10:39:21;;;;;;;12.53;7.30;;;;;;;0.41;70.51;101217.89;1467403;88;21642;-89
2023/01/29 10:42:05;;;;;;;10.80;5.53;;;;;;;0.28;70.58;101215.84;1478091;88;21644;-87
2023/01/29 10:45:18;;;;;;;8.90;5.40;;;;;;;0.15;68.98;101209.00;1484331;88;21822;-86
2023/01/29 10:48:22;;;;;;;7.83;5.03;;;;;;;0.19;70.01;101211.86;1482599;88;21568;-86
2023/01/29 10:51:18;;;;;;;8.80;5.07;;;;;;;0.14;69.67;101204.69;1482712;88;21442;-88
2023/01/29 10:54:26;;;;;;;10.70;5.57;;;;;;;0.03;68.95;101197.33;1481954;88;21832;-84
2023/01/29 10:56:57;;;;;;;9.77;5.63;;;;;;;0.07;69.12;101199.34;1481217;88;21553;-88
2023/01/29 10:59:38;;;;;;;14.17;7.17;;;;;;;0.08;68.91;101196.66;1476344;88;21686;-88
2023/01/29 11:02:18;;;;;;;10.32;4.97;;;;;;;0.16;69.12;101193.77;1481972;88;22443;-88
2023/01/29 11:04:45;;;;;;;11.07;5.33;;;;;;;0.16;68.17;101192.45;1481445;88;21384;-89
2023/01/29 11:07:13;;;;;;;11.53;5.80;;;;;;;0.14;68.16;101187.77;1483473;88;21689;-88
2023/01/29 11:09:53;;;;;;;12.60;6.73;;;;;;;0.18;68.76;101190.65;1477698;88;21629;-88
2023/01/29 11:12:26;;;;;;;13.57;6.77;;;;;;;0.11;68.13;101191.79;1479994;86;21560;-89
2023/01/29 11:15:03;;;;;;;10.23;5.70;;;;;;;0.09;68.14;101188.42;1567150;88;21466;-88
2023/01/29 11:17:29;;;;;;;10.63;5.97;;;;;;;0.14;68.00;101182.09;1554038;88;21637;-89
2023/01/29 11:19:55;;;;;;;15.93;8.60;;;;;;;0.15;67.93;101177.76;1481100;88;21751;-89
2023/01/29 11:22:26;;;;;;;8.43;4.80;;;;;;;0.18;68.52;101164.62;1476972;88;21561;-87
2023/01/29 11:25:19;;;;;;;10.65;5.58;;;;;;;0.04;67.82;101171.68;1480637;88;21812;-82
2023/01/29 11:28:00;;;;;;;13.80;7.43;;;;;;;0.07;68.25;101171.55;1478499;88;21570;-88
2023/01/29 11:30:38;;;;;;;7.93;5.57;;;;;;;0.07;68.95;101172.02;1482155;88;21625;-87
2023/01/29 11:33:19;;;;;;;10.90;6.17;;;;;;;0.06;69.00;101166.39;1479899;88;21870;-85
2023/01/29 11:35:46;;;;;;;10.25;5.80;;;;;;;-0.13;68.49;101160.64;1476792;88;23042;-87
2023/01/29 11:38:28;;;;;;;13.23;8.10;;;;;;;-0.05;69.01;101159.89;1508613;88;21406;-87
2023/01/29 11:41:21;;;;;;;12.27;7.03;;;;;;;-0.04;69.66;101162.87;1563577;88;21380;-88
2023/01/29 11:43:44;;;;;;;13.73;8.53;;;;;;;-0.10;69.20;101161.82;1562270;88;21548;-87
2023/01/29 11:46:15;;;;;;;11.57;7.07;;;;;;;-0.06;69.55;101156.03;1408014;88;21487;-86
2023/01/29 11:48:53;;;;;;;13.00;7.47;;;;;;;-0.07;69.79;101147.38;1439134;88;21593;-88
2023/01/29 11:51:27;;;;;;;16.67;9.17;;;;;;;-0.05;69.12;101145.58;1472930;88;21450;-89
2023/01/29 11:53:58;;;;;;;15.30;10.13;;;;;;;-0.05;69.47;101134.33;1477308;88;21655;-90
2023/01/29 11:56:32;;;;;;;17.02;9.60;;;;;;;-0.03;70.15;101141.59;1475229;88;21539;-92
2023/01/29 11:59:03;;;;;;;16.07;10.23;;;;;;;0.04;69.97;101139.14;1476986;88;21773;-92
2023/01/29 12:01:33;;;;;;;11.13;7.10;;;;;;;0.11;70.12;101135.83;1476982;88;21665;-88
2023/01/29 12:04:00;;;;;;;23.70;15.50;;;;;;;0.02;68.35;101122.73;1478472;88;21601;-88
2023/01/29 12:06:36;;;;;;;21.00;12.90;;;;;;;0.12;68.78;101120.63;1481530;88;21628;-85
2023/01/29 12:09:12;;;;;;;15.83;10.77;;;;;;;0.20;68.75;101110.70;1477868;88;21612;-88
2023/01/29 12:11:38;;;;;;;18.47;11.20;;;;;;;0.28;67.77;101109.93;1478426;88;21785;-89
2023/01/29 12:14:25;;;;;;;15.57;9.57;;;;;;;0.35;68.02;101100.97;1479635;88;21613;-89